createdAt,value
2018-02-05T00:01:14.420Z,101031.55
2018-02-05T00:03:42.821Z,101042.33
2018-02-05T00:06:11.287Z,101041.34
2018-02-05T00:08:39.746Z,101040.64
2018-02-05T00:11:08.173Z,101038.70
2018-02-05T00:13:36.575Z,101043.29
2018-02-05T00:16:05.054Z,101042.88
2018-02-05T00:18:33.486Z,101050.30
2018-02-05T00:21:01.890Z,101050.97
2018-02-05T00:23:30.422Z,101058.84
2018-02-05T00:25:58.837Z,101057.13
2018-02-05T00:28:27.246Z,101056.30
2018-02-05T00:30:55.684Z,101057.55
2018-02-05T00:33:24.088Z,101060.73
2018-02-05T00:35:52.500Z,101056.62
2018-02-05T00:38:20.959Z,101058.52
2018-02-05T00:40:49.363Z,101053.91
2018-02-05T00:43:17.804Z,101055.16
2018-02-05T00:45:46.264Z,101055.53
2018-02-05T00:48:14.696Z,101057.09
2018-02-05T00:50:43.131Z,101054.41
2018-02-05T00:53:11.623Z,101055.38
2018-02-05T00:55:40.050Z,101054.16
2018-02-05T00:58:08.453Z,101050.27
2018-02-05T01:00:36.911Z,101051.67
2018-02-05T01:03:05.324Z,101049.54
2018-02-05T01:05:33.756Z,101054.23
2018-02-05T01:08:02.194Z,101046.61
2018-02-05T01:10:30.580Z,101055.38
2018-02-05T01:12:58.992Z,101057.15
2018-02-05T01:15:27.460Z,101060.47
2018-02-05T01:17:55.858Z,101070.92
2018-02-05T01:20:24.267Z,101063.73
2018-02-05T01:22:52.956Z,101064.91
2018-02-05T01:25:21.419Z,101067.56
2018-02-05T01:27:49.831Z,101070.98
2018-02-05T01:30:18.278Z,101071.34
2018-02-05T01:32:46.693Z,101072.05
2018-02-05T01:35:15.100Z,101069.33
2018-02-05T01:37:43.553Z,101073.80
2018-02-05T01:40:11.974Z,101071.02
2018-02-05T01:42:40.373Z,101073.89
2018-02-05T01:45:08.853Z,101068.30
2018-02-05T01:47:37.261Z,101064.42
2018-02-05T01:50:05.667Z,101067.31
2018-02-05T01:52:34.145Z,101070.95
2018-02-05T01:55:02.545Z,101068.45
2018-02-05T01:57:30.959Z,101067.63
2018-02-05T01:59:59.470Z,101064.98
2018-02-05T02:02:27.874Z,101063.53
2018-02-05T02:04:56.278Z,101061.45
2018-02-05T02:07:24.719Z,101066.81
2018-02-05T02:09:53.118Z,101066.09
2018-02-05T02:12:21.517Z,101067.37
2018-02-05T02:14:49.983Z,101071.52
2018-02-05T02:17:18.474Z,101074.70
2018-02-05T02:19:46.940Z,101075.05
2018-02-05T02:22:15.437Z,101075.14
2018-02-05T02:24:43.857Z,101075.11
2018-02-05T02:27:12.261Z,101076.55
2018-02-05T02:29:40.760Z,101076.77
2018-02-05T02:32:09.187Z,101076.38
2018-02-05T02:34:37.620Z,101084.43
2018-02-05T02:37:06.095Z,101083.27
2018-02-05T02:39:34.511Z,101089.35
2018-02-05T02:42:02.929Z,101091.26
2018-02-05T02:44:31.380Z,101096.03
2018-02-05T02:46:59.826Z,101097.27
2018-02-05T02:49:28.240Z,101097.95
2018-02-05T02:51:56.685Z,101099.47
2018-02-05T02:54:25.082Z,101104.89
2018-02-05T02:56:53.517Z,101100.47
2018-02-05T02:59:21.969Z,101100.47
2018-02-05T03:01:50.379Z,101100.37
2018-02-05T03:04:18.808Z,101107.28
2018-02-05T03:06:47.280Z,101113.56
2018-02-05T03:09:15.704Z,101113.87
2018-02-05T03:11:44.121Z,101114.95
2018-02-05T03:14:12.741Z,101114.87
2018-02-05T03:16:41.170Z,101107.80
2018-02-05T03:19:09.586Z,101119.38
2018-02-05T03:21:38.077Z,101122.95
2018-02-05T03:24:06.490Z,101117.84
2018-02-05T03:26:34.909Z,101120.50
2018-02-05T03:29:03.392Z,101126.73
2018-02-05T03:31:31.807Z,101127.98
2018-02-05T03:34:00.213Z,101129.30
2018-02-05T03:36:28.653Z,101125.56
2018-02-05T03:38:57.067Z,101127.83
2018-02-05T03:41:25.521Z,101137.36
2018-02-05T03:43:53.978Z,101143.43
2018-02-05T03:46:22.406Z,101147.98
2018-02-05T03:48:50.811Z,101153.80
2018-02-05T03:51:19.284Z,101154.58
2018-02-05T03:53:47.689Z,101150.84
2018-02-05T03:56:16.102Z,101150.91
2018-02-05T03:58:44.558Z,101155.78
2018-02-05T04:01:12.953Z,101153.97
2018-02-05T04:03:41.357Z,101148.05
2018-02-05T04:06:09.837Z,101161.73
2018-02-05T04:08:38.274Z,101160.33
2018-02-05T04:11:06.699Z,101157.02
2018-02-05T04:13:35.200Z,101162.36
2018-02-05T04:16:03.612Z,101171.27
2018-02-05T04:18:32.050Z,101170.27
2018-02-05T04:21:00.532Z,101165.61
2018-02-05T04:23:28.961Z,101170.61
2018-02-05T04:25:57.372Z,101180.83
2018-02-05T04:28:26.087Z,101172.81
2018-02-05T04:30:54.501Z,101179.76
2018-02-05T04:33:22.940Z,101176.80
2018-02-05T04:35:51.405Z,101178.42
2018-02-05T04:38:19.835Z,101178.37
2018-02-05T04:40:48.242Z,101185.44
2018-02-05T04:43:16.703Z,101185.50
2018-02-05T04:45:45.120Z,101189.30
2018-02-05T04:48:13.538Z,101189.78
2018-02-05T04:50:42.001Z,101194.25
2018-02-05T04:53:10.403Z,101195.90
2018-02-05T04:55:38.807Z,101194.00
2018-02-05T04:58:07.291Z,101199.31
2018-02-05T05:00:35.716Z,101196.45
2018-02-05T05:03:04.131Z,101199.91
2018-02-05T05:05:32.593Z,101198.28
2018-02-05T05:08:01.005Z,101199.08
2018-02-05T05:10:29.433Z,101199.64
2018-02-05T05:12:57.905Z,101202.70
2018-02-05T05:15:26.326Z,101198.68
2018-02-05T05:17:54.735Z,101200.47
2018-02-05T05:20:23.216Z,101192.02
2018-02-05T05:22:51.645Z,101195.55
2018-02-05T05:25:20.077Z,101194.05
2018-02-05T05:27:48.536Z,101195.78
2018-02-05T05:30:16.933Z,101195.87
2018-02-05T05:32:45.321Z,101201.56
2018-02-05T05:35:13.793Z,101200.81
2018-02-05T05:37:42.215Z,101205.00
2018-02-05T05:40:10.641Z,101205.52
2018-02-05T05:42:39.105Z,101198.51
2018-02-05T05:45:07.540Z,101201.23
2018-02-05T05:47:35.945Z,101202.60
2018-02-05T05:50:04.404Z,101203.87
2018-02-05T05:52:32.808Z,101204.36
2018-02-05T05:55:01.226Z,101201.62
2018-02-05T05:57:29.673Z,101203.45
2018-02-05T05:59:58.100Z,101208.70
2018-02-05T06:02:26.537Z,101202.59
2018-02-05T06:04:54.980Z,101208.92
2018-02-05T06:07:23.404Z,101206.31
2018-02-05T06:09:51.821Z,101210.42
2018-02-05T06:12:20.306Z,101209.65
2018-02-05T06:14:48.724Z,101217.73
2018-02-05T06:17:17.130Z,101215.50
2018-02-05T06:19:45.576Z,101219.67
2018-02-05T06:22:13.981Z,101223.36
2018-02-05T06:24:42.386Z,101217.48
2018-02-05T06:27:10.849Z,101225.45
2018-02-05T06:29:39.266Z,101228.61
2018-02-05T06:32:07.670Z,101219.94
2018-02-05T06:34:36.142Z,101222.52
2018-02-05T06:37:04.553Z,101223.97
2018-02-05T06:39:32.962Z,101228.41
2018-02-05T06:42:01.398Z,101234.44
2018-02-05T06:44:29.793Z,101237.20
2018-02-05T06:46:58.210Z,101237.88
2018-02-05T06:49:26.684Z,101239.86
2018-02-05T06:52:06.802Z,101245.94
2018-02-05T06:54:47.134Z,101243.59
2018-02-05T06:57:15.532Z,101238.75
2018-02-05T06:59:43.938Z,101246.80
2018-02-05T07:02:12.421Z,101251.10
2018-02-05T07:04:40.820Z,101255.55
2018-02-05T07:07:09.241Z,101254.20
2018-02-05T07:09:37.689Z,101262.10
2018-02-05T07:12:06.095Z,101261.50
2018-02-05T07:14:34.493Z,101267.66
2018-02-05T07:17:02.929Z,101269.56
2018-02-05T07:19:31.322Z,101267.42
2018-02-05T07:21:59.744Z,101270.74
2018-02-05T07:24:28.179Z,101279.05
2018-02-05T07:26:56.569Z,101276.78
2018-02-05T07:29:24.978Z,101281.67
2018-02-05T07:31:53.460Z,101281.67
2018-02-05T07:34:21.872Z,101279.47
2018-02-05T07:36:50.275Z,101276.42
2018-02-05T07:39:18.738Z,101279.55
2018-02-05T07:41:47.129Z,101285.89
2018-02-05T07:44:15.528Z,101285.06
2018-02-05T07:46:43.965Z,101286.99
2018-02-05T07:49:12.384Z,101296.39
2018-02-05T07:51:40.774Z,101298.70
2018-02-05T07:54:09.238Z,101300.49
2018-02-05T07:56:37.660Z,101306.58
2018-02-05T07:59:06.062Z,101296.22
2018-02-05T08:01:34.497Z,101296.00
2018-02-05T08:04:02.908Z,101297.22
2018-02-05T08:06:31.321Z,101298.22
2018-02-05T08:08:59.762Z,101289.58
2018-02-05T08:11:28.171Z,101293.16
2018-02-05T08:13:56.580Z,101293.16
2018-02-05T08:16:25.042Z,101297.30
2018-02-05T08:18:53.461Z,101289.91
2018-02-05T08:21:21.849Z,101291.55
2018-02-05T08:23:50.295Z,101290.45
2018-02-05T08:26:18.705Z,101289.97
2018-02-05T08:28:47.106Z,101289.22
2018-02-05T08:31:15.572Z,101292.26
2018-02-05T08:33:43.985Z,101305.50
2018-02-05T08:36:12.381Z,101294.91
2018-02-05T08:38:40.825Z,101295.09
2018-02-05T08:41:09.436Z,101291.50
2018-02-05T08:43:37.857Z,101297.47
2018-02-05T08:46:06.385Z,101299.95
2018-02-05T08:48:34.779Z,101300.02
2018-02-05T08:51:03.175Z,101299.62
2018-02-05T08:53:31.638Z,101292.49
2018-02-05T08:56:00.033Z,101295.47
2018-02-05T08:58:28.430Z,101299.45
2018-02-05T09:00:56.897Z,101297.91
2018-02-05T09:03:25.297Z,101300.95
2018-02-05T09:05:53.714Z,101297.87
2018-02-05T09:08:22.166Z,101303.17
2018-02-05T09:10:50.567Z,101297.40
2018-02-05T09:13:18.958Z,101293.60
2018-02-05T09:15:47.420Z,101295.60
2018-02-05T09:18:15.819Z,101298.06
2018-02-05T09:20:44.232Z,101298.33
2018-02-05T09:23:12.713Z,101300.81
2018-02-05T09:25:41.133Z,101305.31
2018-02-05T09:28:09.554Z,101296.44
2018-02-05T09:30:37.992Z,101292.56
2018-02-05T09:33:06.417Z,101295.37
2018-02-05T09:35:34.825Z,101300.83
2018-02-05T09:38:03.278Z,101297.39
2018-02-05T09:40:31.687Z,101299.44
2018-02-05T09:43:00.298Z,101296.47
2018-02-05T09:45:28.750Z,101301.61
2018-02-05T09:47:57.159Z,101299.60
2018-02-05T09:50:25.547Z,101305.47
2018-02-05T09:52:54.008Z,101307.57
2018-02-05T09:55:22.431Z,101312.56
2018-02-05T09:57:50.820Z,101310.63
2018-02-05T10:00:19.270Z,101315.66
2018-02-05T10:02:47.690Z,101311.61
2018-02-05T10:05:16.110Z,101307.98
2018-02-05T10:07:44.573Z,101305.11
2018-02-05T10:10:12.971Z,101315.20
2018-02-05T10:12:41.392Z,101318.86
2018-02-05T10:15:09.849Z,101320.55
2018-02-05T10:17:38.269Z,101321.90
2018-02-05T10:20:06.665Z,101319.85
2018-02-05T10:22:35.442Z,101316.73
2018-02-05T10:25:03.870Z,101307.86
2018-02-05T10:27:32.277Z,101306.29
2018-02-05T10:30:00.753Z,101311.33
2018-02-05T10:32:29.148Z,101308.31
2018-02-05T10:34:57.629Z,101310.72
2018-02-05T10:37:26.267Z,101299.45
2018-02-05T10:39:54.729Z,101303.39
2018-02-05T10:42:23.136Z,101300.28
2018-02-05T10:44:51.596Z,101300.51
2018-02-05T10:47:20.013Z,101299.44
2018-02-05T10:49:48.428Z,101301.23
2018-02-05T10:52:16.893Z,101300.15
2018-02-05T10:54:46.208Z,101297.26
2018-02-05T10:57:14.602Z,101303.63
2018-02-05T10:59:43.076Z,101302.23
2018-02-05T11:02:11.521Z,101297.05
2018-02-05T11:04:39.933Z,101291.68
2018-02-05T11:07:08.369Z,101296.97
2018-02-05T11:09:36.780Z,101292.20
2018-02-05T11:12:05.201Z,101280.38
2018-02-05T11:14:33.661Z,101281.22
2018-02-05T11:17:02.060Z,101288.14
2018-02-05T11:19:30.468Z,101292.00
2018-02-05T11:21:58.927Z,101272.89
2018-02-05T11:24:27.353Z,101274.05
2018-02-05T11:26:55.746Z,101280.35
2018-02-05T11:29:24.272Z,101275.53
2018-02-05T11:31:52.677Z,101277.86
2018-02-05T11:34:21.061Z,101273.06
2018-02-05T11:36:49.499Z,101273.91
2018-02-05T11:39:17.913Z,101269.29
2018-02-05T11:41:46.328Z,101268.28
2018-02-05T11:44:14.776Z,101262.37
2018-02-05T11:46:43.177Z,101271.67
2018-02-05T11:49:11.588Z,101269.71
2018-02-05T11:51:40.041Z,101263.91
2018-02-05T11:54:08.456Z,101255.01
2018-02-05T11:56:36.864Z,101249.58
2018-02-05T11:59:05.320Z,101247.82
2018-02-05T12:01:33.732Z,101254.59
2018-02-05T12:04:02.128Z,101249.47
2018-02-05T12:06:30.566Z,101238.71
2018-02-05T12:08:59.221Z,101236.15
2018-02-05T12:11:27.633Z,101236.89
2018-02-05T12:13:56.110Z,101234.73
2018-02-05T12:16:24.522Z,101228.12
2018-02-05T12:18:52.909Z,101230.16
2018-02-05T12:21:21.377Z,101225.44
2018-02-05T12:23:49.797Z,101219.41
2018-02-05T12:26:18.195Z,101220.17
2018-02-05T12:28:46.659Z,101223.70
2018-02-05T12:31:15.078Z,101230.20
2018-02-05T12:33:43.485Z,101222.75
2018-02-05T12:36:11.930Z,101223.98
2018-02-05T12:38:40.317Z,101224.19
2018-02-05T12:41:08.735Z,101223.33
2018-02-05T12:43:37.169Z,101221.94
2018-02-05T12:46:05.569Z,101216.52
2018-02-05T12:48:33.969Z,101209.23
2018-02-05T12:51:02.409Z,101202.42
2018-02-05T12:53:30.827Z,101207.10
2018-02-05T12:55:59.338Z,101206.69
2018-02-05T12:58:27.812Z,101200.33
2018-02-05T13:00:58.209Z,101195.11
2018-02-05T13:03:40.548Z,101192.14
2018-02-05T13:06:11.856Z,101193.40
2018-02-05T13:08:40.328Z,101189.19
2018-02-05T13:11:08.718Z,101187.23
2018-02-05T13:13:37.125Z,101194.33
2018-02-05T13:16:05.570Z,101191.45
2018-02-05T13:18:33.992Z,101191.48
2018-02-05T13:21:02.377Z,101188.67
2018-02-05T13:23:30.818Z,101183.59
2018-02-05T13:25:59.225Z,101182.89
2018-02-05T13:28:27.649Z,101186.13
2018-02-05T13:30:56.111Z,101190.20
2018-02-05T13:33:24.517Z,101177.43
2018-02-05T13:35:52.916Z,101186.02
2018-02-05T13:38:21.362Z,101182.59
2018-02-05T13:40:49.772Z,101176.24
2018-02-05T13:43:18.178Z,101172.98
2018-02-05T13:45:46.620Z,101167.53
2018-02-05T13:48:15.046Z,101158.17
2018-02-05T13:50:43.482Z,101166.03
2018-02-05T13:53:12.132Z,101159.58
2018-02-05T13:55:40.555Z,101160.25
2018-02-05T13:58:08.969Z,101159.80
2018-02-05T14:00:37.424Z,101157.16
2018-02-05T14:03:05.832Z,101150.66
2018-02-05T14:05:34.304Z,101149.06
2018-02-05T14:08:02.737Z,101153.00
2018-02-05T14:10:31.148Z,101144.86
2018-02-05T14:12:59.577Z,101137.51
2018-02-05T14:15:28.038Z,101132.10
2018-02-05T14:17:56.434Z,101118.67
2018-02-05T14:20:24.847Z,101115.77
2018-02-05T14:22:53.294Z,101116.03
2018-02-05T14:25:21.699Z,101118.37
2018-02-05T14:27:50.086Z,101109.94
2018-02-05T14:30:18.557Z,101108.42
2018-02-05T14:32:46.950Z,101105.34
2018-02-05T14:35:15.365Z,101106.66
2018-02-05T14:37:43.834Z,101103.29
2018-02-05T14:40:12.257Z,101106.65
2018-02-05T14:42:40.669Z,101106.86
2018-02-05T14:45:09.124Z,101106.90
2018-02-05T14:47:37.552Z,101100.91
2018-02-05T14:50:05.961Z,101103.28
2018-02-05T14:52:34.402Z,101103.23
2018-02-05T14:55:02.793Z,101096.18
2018-02-05T14:57:31.189Z,101097.13
2018-02-05T14:59:59.652Z,101095.68
2018-02-05T15:02:28.052Z,101098.92
2018-02-05T15:04:56.451Z,101090.86
2018-02-05T15:07:24.895Z,101084.63
2018-02-05T15:09:53.310Z,101086.57
2018-02-05T15:12:21.710Z,101083.78
2018-02-05T15:14:50.146Z,101085.17
2018-02-05T15:17:18.550Z,101085.13
2018-02-05T15:19:46.950Z,101079.48
2018-02-05T15:22:15.391Z,101081.91
2018-02-05T15:24:43.797Z,101087.59
2018-02-05T15:27:12.217Z,101084.06
2018-02-05T15:29:40.705Z,101084.20
2018-02-05T15:32:09.105Z,101078.23
2018-02-05T15:34:37.513Z,101078.95
2018-02-05T15:37:05.972Z,101078.66
2018-02-05T15:39:34.383Z,101079.48
2018-02-05T15:42:02.805Z,101073.42
2018-02-05T15:44:31.420Z,101077.32
2018-02-05T15:46:59.831Z,101077.17
2018-02-05T15:49:28.248Z,101071.19
2018-02-05T15:51:56.690Z,101070.33
2018-02-05T15:54:25.083Z,101073.12
2018-02-05T15:56:53.520Z,101073.73
2018-02-05T15:59:22.006Z,101073.30
2018-02-05T16:01:50.403Z,101070.30
2018-02-05T16:04:18.823Z,101073.70
2018-02-05T16:06:47.257Z,101073.70
2018-02-05T16:09:15.655Z,101078.55
2018-02-05T16:11:44.061Z,101076.39
2018-02-05T16:14:12.525Z,101071.11
2018-02-05T16:16:40.943Z,101073.31
2018-02-05T16:19:09.345Z,101065.97
2018-02-05T16:21:37.796Z,101068.47
2018-02-05T16:24:06.213Z,101068.55
2018-02-05T16:26:34.624Z,101071.68
2018-02-05T16:29:03.058Z,101068.63
2018-02-05T16:31:31.449Z,101059.17
2018-02-05T16:33:59.835Z,101057.36
2018-02-05T16:36:28.278Z,101058.91
2018-02-05T16:38:56.688Z,101048.19
2018-02-05T16:41:25.080Z,101052.80
2018-02-05T16:43:53.514Z,101046.69
2018-02-05T16:46:21.918Z,101048.59
2018-02-05T16:48:50.389Z,101047.20
2018-02-05T16:51:18.833Z,101041.78
2018-02-05T16:53:47.233Z,101038.69
2018-02-05T16:56:15.626Z,101042.95
2018-02-05T16:58:44.097Z,101045.69
2018-02-05T17:01:12.505Z,101049.89
2018-02-05T17:03:40.917Z,101051.11
2018-02-05T17:06:09.372Z,101050.02
2018-02-05T17:08:37.793Z,101053.41
2018-02-05T17:11:06.177Z,101046.66
2018-02-05T17:13:34.644Z,101038.36
2018-02-05T17:16:03.057Z,101042.70
2018-02-05T17:18:31.445Z,101038.24
2018-02-05T17:20:59.907Z,101038.44
2018-02-05T17:23:28.318Z,101038.81
2018-02-05T17:25:56.724Z,101040.98
2018-02-05T17:28:25.180Z,101036.45
2018-02-05T17:30:53.589Z,101041.47
2018-02-05T17:33:21.981Z,101037.74
2018-02-05T17:35:50.412Z,101042.77
2018-02-05T17:38:18.830Z,101041.22
2018-02-05T17:40:47.251Z,101046.77
2018-02-05T17:43:15.686Z,101046.69
2018-02-05T17:45:44.103Z,101045.84
2018-02-05T17:48:12.491Z,101042.16
2018-02-05T17:50:40.953Z,101041.34
2018-02-05T17:53:09.394Z,101038.28
2018-02-05T17:55:37.797Z,101035.73
2018-02-05T17:58:06.326Z,101035.51
2018-02-05T18:00:34.837Z,101038.21
2018-02-05T18:03:03.277Z,101037.21
2018-02-05T18:05:31.730Z,101036.81
2018-02-05T18:08:00.124Z,101030.94
2018-02-05T18:10:28.523Z,101032.20
2018-02-05T18:12:56.953Z,101030.53
2018-02-05T18:15:25.345Z,101022.75
2018-02-05T18:17:53.741Z,101025.92
2018-02-05T18:20:22.191Z,101028.98
2018-02-05T18:22:50.605Z,101022.48
2018-02-05T18:25:19.009Z,101014.81
2018-02-05T18:27:47.461Z,101017.48
2018-02-05T18:30:15.876Z,101013.69
2018-02-05T18:32:44.269Z,101017.07
2018-02-05T18:35:13.313Z,101013.11
2018-02-05T18:37:41.713Z,101008.69
2018-02-05T18:40:10.190Z,101010.80
2018-02-05T18:42:38.626Z,101007.45
2018-02-05T18:45:07.026Z,101004.22
2018-02-05T18:47:35.425Z,101001.36
2018-02-05T18:50:03.911Z,101003.59
2018-02-05T18:52:32.353Z,100996.83
2018-02-05T18:55:00.770Z,100997.83
2018-02-05T18:57:29.275Z,100991.39
2018-02-05T18:59:57.711Z,100980.94
2018-02-05T19:02:26.120Z,100981.44
2018-02-05T19:04:54.693Z,100979.99
2018-02-05T19:07:23.087Z,100984.14
2018-02-05T19:09:51.483Z,100978.97
2018-02-05T19:12:19.925Z,100979.80
2018-02-05T19:14:48.317Z,100974.78
2018-02-05T19:17:16.731Z,100970.78
2018-02-05T19:19:45.185Z,100973.98
2018-02-05T19:22:13.606Z,100968.89
2018-02-05T19:24:42.013Z,100966.89
2018-02-05T19:27:10.465Z,100965.74
2018-02-05T19:29:38.852Z,100962.22
2018-02-05T19:32:07.250Z,100957.83
2018-02-05T19:34:35.712Z,100958.91
2018-02-05T19:37:04.134Z,100963.92
2018-02-05T19:39:32.544Z,100960.80
2018-02-05T19:42:01.000Z,100956.92
2018-02-05T19:44:29.452Z,100952.43
2018-02-05T19:46:57.861Z,100956.63
2018-02-05T19:49:26.293Z,100951.27
2018-02-05T19:51:54.766Z,100949.80
2018-02-05T19:54:23.161Z,100946.09
2018-02-05T19:56:51.597Z,100941.89
2018-02-05T19:59:19.979Z,100945.25
2018-02-05T20:01:48.367Z,100955.25
2018-02-05T20:04:16.816Z,100953.53
2018-02-05T20:06:45.216Z,100951.73
2018-02-05T20:09:13.598Z,100953.63
2018-02-05T20:11:42.074Z,100944.85
2018-02-05T20:14:10.457Z,100955.37
2018-02-05T20:16:38.868Z,100952.01
2018-02-05T20:19:07.305Z,100952.39
2018-02-05T20:21:35.706Z,100945.44
2018-02-05T20:24:04.116Z,100945.89
2018-02-05T20:26:32.558Z,100947.73
2018-02-05T20:29:00.949Z,100946.38
2018-02-05T20:31:29.354Z,100940.30
2018-02-05T20:33:57.940Z,100939.48
2018-02-05T20:36:26.348Z,100937.67
2018-02-05T20:38:54.757Z,100928.66
2018-02-05T20:41:23.212Z,100933.48
2018-02-05T20:43:51.606Z,100930.62
2018-02-05T20:46:20.013Z,100936.30
2018-02-05T20:48:48.460Z,100929.73
2018-02-05T20:51:16.878Z,100936.87
2018-02-05T20:53:45.292Z,100934.71
2018-02-05T20:56:13.772Z,100936.30
2018-02-05T20:58:42.207Z,100932.44
2018-02-05T21:01:10.627Z,100930.72
2018-02-05T21:03:39.072Z,100929.31
2018-02-05T21:06:07.464Z,100930.72
2018-02-05T21:08:35.870Z,100927.50
2018-02-05T21:11:04.317Z,100923.89
2018-02-05T21:13:32.710Z,100916.98
2018-02-05T21:16:01.116Z,100916.42
2018-02-05T21:18:29.548Z,100914.84
2018-02-05T21:20:57.961Z,100920.53
2018-02-05T21:23:26.348Z,100912.78
2018-02-05T21:25:54.828Z,100911.33
2018-02-05T21:28:23.221Z,100907.45
2018-02-05T21:30:51.624Z,100907.95
2018-02-05T21:33:20.097Z,100905.80
2018-02-05T21:35:48.484Z,100905.04
2018-02-05T21:38:16.898Z,100900.28
2018-02-05T21:40:45.345Z,100905.20
2018-02-05T21:43:13.762Z,100892.22
2018-02-05T21:45:42.166Z,100893.94
2018-02-05T21:48:10.625Z,100898.70
2018-02-05T21:50:39.013Z,100892.99
2018-02-05T21:53:07.401Z,100885.08
2018-02-05T21:55:35.849Z,100882.53
2018-02-05T21:58:04.265Z,100882.39
2018-02-05T22:00:32.677Z,100874.22
2018-02-05T22:03:01.133Z,100876.22
2018-02-05T22:05:29.520Z,100875.48
2018-02-05T22:07:57.959Z,100871.02
2018-02-05T22:10:26.404Z,100872.37
2018-02-05T22:12:54.819Z,100863.24
2018-02-05T22:15:23.241Z,100868.64
2018-02-05T22:17:51.681Z,100857.61
2018-02-05T22:20:20.086Z,100850.55
2018-02-05T22:22:48.485Z,100845.64
2018-02-05T22:25:16.941Z,100848.30
2018-02-05T22:27:45.351Z,100840.48
2018-02-05T22:30:13.768Z,100836.21
2018-02-05T22:32:42.916Z,100827.73
2018-02-05T22:35:11.342Z,100829.00
2018-02-05T22:37:39.743Z,100821.13
2018-02-05T22:40:08.188Z,100822.95
2018-02-05T22:42:36.600Z,100815.28
2018-02-05T22:45:05.013Z,100811.61
2018-02-05T22:47:33.461Z,100809.41
2018-02-05T22:50:01.866Z,100802.73
2018-02-05T22:52:30.266Z,100802.89
2018-02-05T22:54:58.713Z,100803.33
2018-02-05T22:57:27.116Z,100800.94
2018-02-05T22:59:55.557Z,100792.06
2018-02-05T23:02:23.981Z,100796.19
2018-02-05T23:04:52.392Z,100797.17
2018-02-05T23:07:20.781Z,100792.08
2018-02-05T23:09:49.228Z,100792.44
2018-02-05T23:12:17.621Z,100785.86
2018-02-05T23:14:46.034Z,100783.47
2018-02-05T23:17:14.489Z,100776.34
2018-02-05T23:19:42.893Z,100786.82
2018-02-05T23:22:11.297Z,100778.05
2018-02-05T23:24:39.741Z,100774.10
2018-02-05T23:27:08.133Z,100772.87
2018-02-05T23:29:36.518Z,100771.54
2018-02-05T23:32:04.938Z,100769.37
2018-02-05T23:34:33.318Z,100762.87
2018-02-05T23:37:01.713Z,100757.65
2018-02-05T23:39:30.346Z,100757.05
2018-02-05T23:41:58.728Z,100757.87
2018-02-05T23:44:27.132Z,100749.58
2018-02-05T23:46:55.597Z,100746.64
2018-02-05T23:49:23.989Z,100744.17
2018-02-05T23:51:52.393Z,100740.55
2018-02-05T23:54:20.821Z,100740.12
2018-02-05T23:56:49.208Z,100748.41
2018-02-05T23:59:17.592Z,100743.43
